Maple Hill, Iowa
Current Conditions -  °F | °C
As of 6:52 PM on Friday 24 Oct 2014 (Local Time) from KEST Reporting Station
Clear Clear  
Wind Chill: 59°   Ceiling: Unl
Heat Index: 59°   Visibility: 10mi
Dew Point: 37°   Wind: 6mph
Humidity: 44%   Direction: 290°WNW
Pressure: 29.91"   Gusts: NA
Location:  43.4207°N, 94.5018°W
Report Text: KEST 242352Z AUTO 29005KT 10SM CLR 15/03 A2991 RMK AO2 SLP131 T01500028 10239 20150 53017
Loading
Personal Weather Stations






























Interactive Weather Map
Tropical Storm Tracking
New forecast layout! Learn more

10-Day Weather Forecast

Advertisements
Track Severe Weather on mobile